Time;durP1;ratioP1;P1;durP2;ratioP2;P2;SDS_P1;SDS_P2;PMS_P1;PMS_P2;Temp;Humidity;BMP_temperature;BMP_pressure;BME280_temperature;BME280_humidity;BME280_pressure;Samples;Min_cycle;Max_cycle;Signal;HPM_P1;HPM_P2
2021/12/19 00:04:39;;;;;;;2.80;2.60;;;18.90;29.10;;;;;;5089882;28;20485;-64
2021/12/19 00:09:53;;;;;;;2.60;2.40;;;18.90;29.10;;;;;;5095982;28;20648;-63
2021/12/19 00:12:23;;;;;;;2.63;2.42;;;18.90;29.10;;;;;;5095871;28;20478;-63
2021/12/19 00:14:50;;;;;;;2.70;2.50;;;18.90;29.10;;;;;;5089939;28;20204;-63
2021/12/19 00:17:17;;;;;;;2.38;2.17;;;18.90;29.10;;;;;;5076362;28;20231;-64
2021/12/19 00:19:46;;;;;;;2.80;2.60;;;18.90;29.60;;;;;;5075536;28;20212;-64
2021/12/19 00:22:13;;;;;;;2.55;2.35;;;18.90;29.00;;;;;;5075863;28;20204;-64
2021/12/19 00:24:40;;;;;;;2.50;2.30;;;18.90;29.00;;;;;;5079918;28;20204;-63
2021/12/19 00:27:07;;;;;;;2.47;2.20;;;18.90;29.00;;;;;;5098795;28;20208;-63
2021/12/19 00:29:35;;;;;;;2.30;2.08;;;18.90;28.90;;;;;;5099403;28;20204;-63
2021/12/19 00:32:02;;;;;;;2.30;2.10;;;18.90;29.00;;;;;;5099520;28;20220;-65
2021/12/19 00:34:29;;;;;;;2.13;2.00;;;18.90;28.90;;;;;;5096589;28;20211;-64
2021/12/19 00:36:57;;;;;;;2.08;1.90;;;18.90;29.00;;;;;;5079155;28;20609;-63
2021/12/19 00:39:24;;;;;;;2.35;2.15;;;18.90;29.50;;;;;;5079721;28;20204;-63
2021/12/19 00:41:53;;;;;;;1.98;1.88;;;18.90;28.90;;;;;;5079556;28;20218;-64
2021/12/19 00:44:23;;;;;;;2.17;2.00;;;18.90;28.90;;;;;;5079818;28;20215;-64
2021/12/19 00:47:03;;;;;;;1.77;1.63;;;18.90;29.00;;;;;;5099743;28;20214;-63
2021/12/19 00:49:31;;;;;;;1.70;1.60;;;18.90;28.90;;;;;;5099474;28;20582;-64
2021/12/19 00:52:01;;;;;;;2.90;2.00;;;19.00;29.00;;;;;;5099288;28;20271;-64
2021/12/19 00:54:29;;;;;;;1.92;1.83;;;18.90;28.90;;;;;;5097194;28;20204;-64
2021/12/19 00:56:56;;;;;;;1.80;1.70;;;18.90;28.90;;;;;;5095547;28;20203;-63
2021/12/19 00:59:24;;;;;;;1.85;1.73;;;18.90;28.90;;;;;;5099181;28;20214;-64
2021/12/19 01:01:51;;;;;;;1.75;1.65;;;18.90;28.90;;;;;;5099767;28;20214;-63
2021/12/19 01:04:21;;;;;;;1.75;1.65;;;18.90;28.90;;;;;;5098615;28;20594;-63
2021/12/19 01:06:49;;;;;;;1.77;1.52;;;18.90;28.90;;;;;;5079300;28;20231;-64
2021/12/19 01:09:18;;;;;;;1.40;1.30;;;18.90;28.90;;;;;;5078732;28;20212;-64
2021/12/19 01:11:48;;;;;;;1.52;1.42;;;18.90;28.90;;;;;;5078652;28;20228;-63
2021/12/19 01:14:16;;;;;;;1.40;1.30;;;18.90;28.90;;;;;;5078609;28;20303;-63
2021/12/19 01:16:44;;;;;;;1.65;1.55;;;18.90;28.90;;;;;;5097564;28;20218;-63
2021/12/19 01:19:12;;;;;;;2.10;1.42;;;18.90;28.90;;;;;;5098589;28;20208;-63
2021/12/19 01:21:39;;;;;;;1.73;1.40;;;18.90;28.80;;;;;;5095369;28;20210;-63
2021/12/19 01:24:07;;;;;;;1.60;1.50;;;18.90;28.80;;;;;;5098871;28;20231;-63
2021/12/19 01:26:36;;;;;;;1.50;1.40;;;18.90;28.90;;;;;;5098013;28;20624;-64
2021/12/19 01:29:04;;;;;;;1.40;1.30;;;18.90;28.90;;;;;;5099239;28;20310;-62
2021/12/19 01:31:31;;;;;;;1.45;1.35;;;18.90;28.80;;;;;;5098944;28;20553;-63
2021/12/19 01:33:59;;;;;;;2.60;1.33;;;18.90;28.80;;;;;;5098230;28;20272;-63
2021/12/19 01:36:26;;;;;;;1.30;1.20;;;18.80;28.70;;;;;;5080302;28;20215;-63
2021/12/19 01:38:54;;;;;;;1.45;1.35;;;18.90;28.80;;;;;;5078595;28;20212;-63
2021/12/19 01:41:22;;;;;;;1.45;1.30;;;18.80;28.80;;;;;;5078277;28;20508;-64
2021/12/19 01:43:50;;;;;;;1.30;1.20;;;18.80;28.70;;;;;;5078195;28;20295;-63
2021/12/19 01:46:18;;;;;;;1.30;1.20;;;18.80;28.80;;;;;;5093936;28;20207;-63
2021/12/19 01:48:45;;;;;;;1.30;1.00;;;18.80;28.70;;;;;;5086542;28;20200;-64
2021/12/19 01:51:13;;;;;;;1.30;1.20;;;18.80;28.70;;;;;;5098838;28;20212;-63
2021/12/19 01:53:40;;;;;;;1.33;1.23;;;18.80;28.70;;;;;;5098199;28;20203;-63
2021/12/19 01:56:08;;;;;;;1.20;1.10;;;18.80;28.70;;;;;;5096973;28;20235;-62
2021/12/19 01:58:35;;;;;;;1.83;1.20;;;18.80;28.80;;;;;;5097950;28;20230;-63
2021/12/19 02:01:04;;;;;;;1.33;1.23;;;18.80;28.80;;;;;;5098458;28;20203;-63
2021/12/19 02:03:35;;;;;;;1.30;1.20;;;18.80;28.80;;;;;;5091842;28;20633;-66
2021/12/19 02:06:03;;;;;;;1.40;1.30;;;18.80;28.70;;;;;;5077359;28;20200;-66
2021/12/19 02:08:30;;;;;;;1.40;1.30;;;18.70;28.70;;;;;;5078029;28;20207;-65
2021/12/19 02:10:58;;;;;;;1.75;1.30;;;18.80;28.70;;;;;;5077755;28;20204;-65
2021/12/19 02:13:26;;;;;;;1.20;1.10;;;18.70;28.60;;;;;;5082405;28;20298;-65
2021/12/19 02:15:54;;;;;;;1.98;1.10;;;18.70;28.70;;;;;;5097898;28;20199;-65
2021/12/19 02:18:23;;;;;;;1.08;0.95;;;18.70;28.70;;;;;;5096359;28;20208;-65
2021/12/19 02:20:55;;;;;;;0.90;0.90;;;18.70;28.80;;;;;;5097829;28;20212;-65
2021/12/19 02:23:25;;;;;;;1.10;1.00;;;18.70;28.70;;;;;;5080153;28;20595;-65
2021/12/19 02:25:53;;;;;;;1.10;1.00;;;18.70;28.70;;;;;;5077181;28;20246;-65
2021/12/19 02:28:22;;;;;;;1.20;1.10;;;18.70;28.70;;;;;;5077454;28;20308;-64
2021/12/19 02:30:50;;;;;;;1.20;1.10;;;18.60;28.50;;;;;;5077465;28;20196;-64
2021/12/19 02:33:22;;;;;;;1.00;0.90;;;18.60;28.60;;;;;;5092454;28;20254;-65
2021/12/19 02:35:57;;;;;;;1.00;1.00;;;18.60;28.60;;;;;;5057039;28;20212;-64
2021/12/19 02:39:10;;;;;;;1.08;1.00;;;18.60;28.60;;;;;;5057765;28;20247;-64
2021/12/19 02:49:36;;;;;;;1.15;1.05;;;18.60;28.60;;;;;;5056235;28;20244;-63
2021/12/19 02:52:12;;;;;;;1.60;1.02;;;18.60;28.60;;;;;;5077198;28;20224;-64
2021/12/19 02:54:41;;;;;;;1.10;0.93;;;18.60;28.70;;;;;;5076549;28;20243;-64
2021/12/19 02:57:09;;;;;;;0.90;0.90;;;18.60;28.60;;;;;;5076836;28;20238;-64
2021/12/19 02:59:37;;;;;;;0.73;0.73;;;18.60;28.60;;;;;;5077225;28;20253;-64
2021/12/19 03:02:05;;;;;;;0.90;0.90;;;18.60;28.60;;;;;;5095205;28;20226;-64
2021/12/19 03:04:33;;;;;;;0.90;0.80;;;18.60;28.50;;;;;;5097223;28;20575;-65
2021/12/19 03:07:01;;;;;;;1.10;1.00;;;18.60;28.60;;;;;;5097295;28;20582;-65
2021/12/19 03:09:47;;;;;;;0.80;0.80;;;18.60;28.60;;;;;;5097233;28;20579;-64
2021/12/19 03:12:28;;;;;;;1.05;0.90;;;18.60;28.60;;;;;;5076954;28;20227;-65
2021/12/19 03:17:59;;;;;;;1.10;1.00;;;18.50;28.60;;;;;;5076472;28;20203;-65
2021/12/19 03:20:27;;;;;;;1.35;0.90;;;18.60;28.60;;;;;;5081045;28;20521;-64
2021/12/19 03:22:55;;;;;;;0.93;0.93;;;18.50;28.60;;;;;;5083778;28;20207;-64
2021/12/19 03:25:23;;;;;;;0.90;0.80;;;18.50;28.50;;;;;;5081274;28;20200;-64
2021/12/19 03:27:52;;;;;;;1.10;0.90;;;18.50;28.60;;;;;;5094668;28;20575;-65
2021/12/19 03:30:20;;;;;;;0.90;0.90;;;18.50;29.20;;;;;;5093581;28;20254;-65
2021/12/19 03:32:48;;;;;;;1.08;0.75;;;18.50;28.50;;;;;;5076411;28;20306;-65
2021/12/19 03:35:16;;;;;;;1.10;0.80;;;18.50;28.50;;;;;;5076431;28;20216;-65
2021/12/19 03:37:43;;;;;;;1.73;1.00;;;18.40;28.40;;;;;;5077067;28;20219;-65
2021/12/19 03:40:14;;;;;;;1.50;0.90;;;18.40;28.30;;;;;;5078453;28;20204;-65
2021/12/19 03:42:44;;;;;;;1.02;1.02;;;18.40;28.20;;;;;;5096378;28;20583;-65
2021/12/19 03:45:17;;;;;;;0.98;0.90;;;18.40;28.30;;;;;;5096652;28;20268;-64
2021/12/19 03:47:46;;;;;;;1.10;1.00;;;18.40;28.20;;;;;;5097023;28;20204;-65
2021/12/19 03:50:18;;;;;;;1.27;1.00;;;18.30;28.10;;;;;;5094309;28;20204;-65
2021/12/19 03:52:45;;;;;;;1.08;0.95;;;18.30;28.20;;;;;;5077011;28;20224;-64
2021/12/19 03:55:13;;;;;;;1.25;0.68;;;18.30;28.20;;;;;;5076172;28;20232;-65
2021/12/19 03:57:41;;;;;;;1.10;1.00;;;18.30;28.20;;;;;;5076669;28;20354;-65
2021/12/19 04:00:12;;;;;;;1.25;1.05;;;18.30;28.10;;;;;;5077742;28;20235;-65
2021/12/19 04:02:40;;;;;;;1.15;0.70;;;18.20;28.10;;;;;;5100259;28;20290;-65
2021/12/19 04:05:08;;;;;;;0.80;0.80;;;18.20;28.00;;;;;;5100619;28;20587;-65
2021/12/19 04:07:35;;;;;;;1.08;0.88;;;18.20;28.10;;;;;;5100621;28;20204;-65
2021/12/19 04:10:03;;;;;;;1.00;0.80;;;18.20;28.10;;;;;;5099763;28;20203;-65
2021/12/19 04:12:30;;;;;;;1.25;0.75;;;18.20;28.20;;;;;;5079906;28;20228;-64
2021/12/19 04:14:58;;;;;;;0.80;0.80;;;18.10;28.00;;;;;;5080365;28;20205;-65
2021/12/19 04:17:25;;;;;;;1.00;0.90;;;18.10;28.10;;;;;;5079879;28;20204;-65
2021/12/19 04:19:53;;;;;;;0.75;0.75;;;18.10;28.00;;;;;;5079838;28;20208;-64
2021/12/19 04:22:20;;;;;;;1.17;0.88;;;18.10;28.10;;;;;;5097757;28;20226;-65
2021/12/19 04:24:47;;;;;;;0.88;0.80;;;18.10;28.10;;;;;;5099625;28;20203;-65
2021/12/19 04:27:15;;;;;;;1.00;0.90;;;18.00;28.00;;;;;;5099459;28;20195;-64
2021/12/19 04:29:45;;;;;;;1.40;0.80;;;18.00;28.00;;;;;;5099620;28;20207;-65
2021/12/19 04:32:12;;;;;;;0.77;0.73;;;18.00;28.00;;;;;;5080511;28;20209;-64
2021/12/19 04:34:40;;;;;;;0.77;0.77;;;18.00;28.10;;;;;;5078869;28;20497;-65
2021/12/19 04:37:27;;;;;;;0.85;0.85;;;18.00;28.10;;;;;;5078866;28;20280;-64
2021/12/19 04:39:59;;;;;;;1.15;0.70;;;18.00;28.70;;;;;;5090902;28;20298;-65
2021/12/19 04:53:48;;;;;;;0.80;0.80;;;17.80;28.00;;;;;;5072390;28;20317;-64
2021/12/19 04:56:31;;;;;;;0.85;0.85;;;17.80;28.00;;;;;;5105719;28;20238;-65
2021/12/19 04:59:15;;;;;;;1.13;0.88;;;17.80;27.90;;;;;;5101981;28;20199;-65
2021/12/19 05:04:50;;;;;;;0.70;0.70;;;17.80;28.00;;;;;;5107551;27;20471;-65
2021/12/19 05:15:48;;;;;;;0.93;0.80;;;17.70;27.90;;;;;;5077162;28;20287;-64
2021/12/19 05:18:15;;;;;;;0.68;0.68;;;17.70;27.90;;;;;;5076981;28;20208;-64
2021/12/19 05:20:52;;;;;;;0.82;0.82;;;17.70;28.00;;;;;;5114015;28;20267;-65
2021/12/19 05:23:25;;;;;;;0.85;0.85;;;17.70;27.90;;;;;;5089319;28;20223;-65
2021/12/19 05:25:54;;;;;;;0.70;0.70;;;17.70;28.00;;;;;;5117184;28;20555;-65
2021/12/19 05:28:21;;;;;;;1.02;0.90;;;17.60;27.80;;;;;;5117144;28;20275;-65
2021/12/19 05:30:49;;;;;;;0.85;0.70;;;17.70;27.90;;;;;;5117065;28;20213;-65
2021/12/19 05:33:17;;;;;;;0.93;0.90;;;17.60;27.90;;;;;;5122731;27;20234;-65
2021/12/19 05:45:11;;;;;;;0.70;0.70;;;17.60;27.90;;;;;;5076453;28;20223;-65
2021/12/19 05:47:01;;;;;;;1.13;0.88;;;17.60;28.00;;;;;;5071995;28;20240;-65
2021/12/19 05:49:29;;;;;;;0.73;0.73;;;17.60;27.90;;;;;;5101768;28;20268;-65
2021/12/19 05:51:57;;;;;;;1.00;0.90;;;17.50;27.90;;;;;;5117922;28;20230;-64
2021/12/19 05:54:24;;;;;;;0.70;0.70;;;17.50;27.90;;;;;;5117705;28;20663;-65
2021/12/19 05:56:53;;;;;;;0.80;0.80;;;17.50;28.00;;;;;;5117674;28;20222;-65
2021/12/19 05:59:21;;;;;;;0.60;0.60;;;17.50;28.00;;;;;;5117902;28;20207;-64
2021/12/19 06:01:48;;;;;;;0.70;0.70;;;17.50;28.00;;;;;;5117559;28;20601;-65
2021/12/19 06:04:16;;;;;;;0.90;0.80;;;17.50;28.00;;;;;;5117576;28;20195;-64
2021/12/19 06:06:43;;;;;;;0.80;0.80;;;17.50;28.00;;;;;;5117558;28;20642;-65
2021/12/19 06:09:10;;;;;;;0.90;0.90;;;17.40;28.00;;;;;;5117444;28;20195;-65
2021/12/19 06:11:37;;;;;;;0.90;0.90;;;17.40;27.90;;;;;;5113567;27;20226;-65
2021/12/19 06:14:06;;;;;;;1.15;0.90;;;17.40;28.00;;;;;;5127252;27;20470;-65
2021/12/19 06:16:33;;;;;;;0.80;0.80;;;17.40;28.00;;;;;;5117528;28;20207;-65
2021/12/19 06:19:00;;;;;;;0.90;0.90;;;17.40;28.00;;;;;;5117042;28;20234;-65
2021/12/19 06:21:27;;;;;;;0.88;0.68;;;17.40;28.00;;;;;;5117427;28;20211;-65
2021/12/19 06:23:54;;;;;;;0.90;0.90;;;17.30;27.90;;;;;;5116832;28;20203;-65
2021/12/19 06:26:21;;;;;;;0.80;0.80;;;17.30;27.90;;;;;;5116919;28;20202;-66
2021/12/19 06:28:48;;;;;;;0.90;0.80;;;17.40;28.00;;;;;;5117234;28;20206;-65
2021/12/19 06:31:18;;;;;;;0.80;0.80;;;17.30;27.90;;;;;;5117491;28;20211;-64
2021/12/19 06:33:46;;;;;;;0.70;0.70;;;17.30;28.00;;;;;;5117078;28;20230;-65
2021/12/19 06:36:13;;;;;;;0.82;0.70;;;17.30;28.00;;;;;;5117116;28;20207;-64
2021/12/19 06:38:40;;;;;;;0.90;0.90;;;17.30;28.00;;;;;;5117505;28;20273;-65
2021/12/19 06:41:08;;;;;;;0.80;0.80;;;17.30;28.00;;;;;;5116798;28;20211;-64
2021/12/19 06:43:35;;;;;;;0.80;0.80;;;17.30;28.00;;;;;;5116605;28;20211;-64
2021/12/19 06:46:02;;;;;;;0.80;0.80;;;17.30;27.90;;;;;;5117013;28;20676;-65
2021/12/19 06:48:30;;;;;;;0.80;0.80;;;17.20;28.00;;;;;;5116903;28;20590;-64
2021/12/19 06:50:57;;;;;;;0.80;0.80;;;17.20;28.00;;;;;;5116315;28;20210;-64
2021/12/19 06:53:24;;;;;;;0.90;0.90;;;17.20;27.90;;;;;;5116588;28;20297;-65
2021/12/19 06:55:52;;;;;;;0.73;0.73;;;17.20;28.00;;;;;;5114732;27;20230;-64
2021/12/19 06:58:19;;;;;;;0.90;0.80;;;17.20;28.00;;;;;;5124661;27;20493;-65
2021/12/19 07:00:46;;;;;;;0.82;0.82;;;17.20;28.00;;;;;;5116644;28;20203;-65
2021/12/19 07:03:15;;;;;;;0.77;0.70;;;17.20;27.90;;;;;;5116813;28;20212;-64
2021/12/19 07:05:43;;;;;;;1.52;0.90;;;17.20;28.00;;;;;;5116657;28;20211;-64
2021/12/19 07:08:10;;;;;;;1.00;1.00;;;17.20;28.10;;;;;;5116611;28;20605;-64
2021/12/19 07:10:37;;;;;;;1.15;0.90;;;17.10;28.00;;;;;;5116453;28;20214;-65
2021/12/19 07:13:05;;;;;;;0.88;0.88;;;17.10;27.90;;;;;;5116659;28;20245;-65
2021/12/19 07:15:32;;;;;;;0.80;0.80;;;17.10;28.00;;;;;;5116139;28;20627;-67
2021/12/19 07:18:02;;;;;;;0.88;0.88;;;17.10;28.00;;;;;;5115783;28;20214;-64
2021/12/19 07:20:30;;;;;;;0.90;0.90;;;17.10;28.00;;;;;;5115121;28;20199;-65
2021/12/19 07:22:58;;;;;;;1.10;1.00;;;17.10;28.10;;;;;;5115835;28;20586;-64
2021/12/19 07:25:26;;;;;;;0.95;0.95;;;17.10;28.10;;;;;;5116089;28;20207;-64
2021/12/19 07:27:53;;;;;;;0.90;0.90;;;17.10;28.10;;;;;;5115498;28;20224;-65
2021/12/19 07:30:24;;;;;;;0.90;0.90;;;17.10;28.00;;;;;;5115569;28;20206;-65
2021/12/19 07:32:52;;;;;;;0.70;0.70;;;17.10;28.10;;;;;;5115372;28;20203;-64
2021/12/19 07:35:19;;;;;;;0.95;0.90;;;17.00;28.00;;;;;;5117636;28;20485;-65
2021/12/19 07:37:48;;;;;;;0.80;0.80;;;17.00;28.00;;;;;;5119888;28;20203;-65
2021/12/19 07:40:19;;;;;;;0.88;0.88;;;17.00;28.00;;;;;;5118999;28;20235;-65
2021/12/19 07:42:47;;;;;;;0.88;0.88;;;17.00;28.00;;;;;;5120294;28;20545;-65
2021/12/19 07:45:16;;;;;;;0.93;0.93;;;17.00;28.10;;;;;;5113095;27;20801;-65
2021/12/19 07:47:44;;;;;;;0.85;0.85;;;17.00;28.00;;;;;;5130724;27;20215;-65
2021/12/19 07:50:12;;;;;;;0.93;0.93;;;17.00;28.00;;;;;;5119448;28;20613;-65
2021/12/19 07:52:40;;;;;;;0.95;0.95;;;17.00;28.10;;;;;;5119903;28;20234;-64
2021/12/19 07:55:08;;;;;;;0.95;0.85;;;16.90;27.90;;;;;;5118961;28;20267;-64
2021/12/19 07:57:37;;;;;;;1.00;0.90;;;16.90;27.90;;;;;;5118878;28;20207;-65
2021/12/19 08:00:07;;;;;;;1.10;1.00;;;16.90;28.00;;;;;;5118724;28;20713;-64
2021/12/19 08:02:35;;;;;;;1.23;1.10;;;16.90;28.10;;;;;;5119432;28;20218;-64
2021/12/19 08:05:03;;;;;;;0.85;0.82;;;16.90;28.00;;;;;;5119600;28;20214;-64
2021/12/19 08:07:30;;;;;;;0.88;0.88;;;16.90;28.10;;;;;;5119203;28;20229;-64
2021/12/19 08:10:11;;;;;;;1.02;1.02;;;16.90;28.00;;;;;;5119235;28;20203;-64
2021/12/19 08:12:40;;;;;;;1.00;1.00;;;16.90;28.00;;;;;;5118847;28;20210;-64
2021/12/19 08:15:10;;;;;;;1.15;1.05;;;16.90;28.10;;;;;;5119019;28;20230;-64
2021/12/19 08:17:37;;;;;;;0.93;0.93;;;16.90;28.10;;;;;;5119046;28;20213;-64
2021/12/19 08:20:09;;;;;;;1.15;1.10;;;16.80;28.00;;;;;;5119022;28;20217;-64
2021/12/19 08:22:36;;;;;;;1.00;1.00;;;16.80;28.00;;;;;;5119006;28;20214;-64
2021/12/19 08:25:05;;;;;;;1.25;1.15;;;16.80;28.00;;;;;;5119426;28;20234;-64
2021/12/19 08:27:34;;;;;;;1.02;1.00;;;16.80;28.00;;;;;;5118711;28;20203;-64
2021/12/19 08:30:05;;;;;;;1.00;1.00;;;16.80;28.10;;;;;;5117749;28;20203;-65
2021/12/19 08:32:32;;;;;;;1.23;1.10;;;16.80;28.10;;;;;;5117048;28;20199;-65
2021/12/19 08:34:59;;;;;;;1.02;1.00;;;16.80;28.10;;;;;;5118583;28;20226;-64
2021/12/19 08:37:27;;;;;;;0.90;0.90;;;16.80;28.10;;;;;;5124121;27;20237;-64
2021/12/19 08:39:55;;;;;;;0.90;0.90;;;16.80;28.10;;;;;;5117885;28;20238;-64
2021/12/19 08:42:22;;;;;;;2.00;1.00;;;16.70;28.10;;;;;;5116362;28;20358;-64
2021/12/19 08:44:49;;;;;;;1.80;1.70;;;16.80;28.10;;;;;;5116498;28;20210;-64
2021/12/19 08:47:18;;;;;;;2.58;1.50;;;16.70;28.10;;;;;;5116196;28;20225;-65
2021/12/19 08:49:45;;;;;;;1.92;1.33;;;16.70;28.10;;;;;;5116135;28;20214;-65
2021/12/19 08:52:13;;;;;;;2.38;1.50;;;16.70;28.20;;;;;;5115624;28;20281;-65
2021/12/19 08:54:40;;;;;;;3.25;1.52;;;16.70;28.10;;;;;;5115808;28;20226;-64
2021/12/19 08:57:07;;;;;;;1.83;1.70;;;16.70;28.10;;;;;;5116618;28;20217;-64
2021/12/19 08:59:34;;;;;;;1.33;1.20;;;16.70;28.10;;;;;;5116203;28;20199;-64
2021/12/19 09:02:02;;;;;;;2.45;1.50;;;16.70;28.20;;;;;;5114934;28;20206;-65
2021/12/19 09:04:31;;;;;;;1.58;1.38;;;16.70;28.10;;;;;;5115877;28;20601;-64
2021/12/19 09:06:59;;;;;;;1.45;1.30;;;16.70;28.20;;;;;;5116223;28;20214;-64
2021/12/19 09:09:26;;;;;;;2.30;1.60;;;16.70;28.20;;;;;;5115432;28;20260;-64
2021/12/19 09:11:53;;;;;;;2.60;1.48;;;16.70;28.20;;;;;;5115668;28;20218;-65
2021/12/19 09:14:21;;;;;;;1.35;1.25;;;16.70;28.20;;;;;;5115667;28;20227;-65
2021/12/19 09:16:48;;;;;;;1.50;1.30;;;16.60;28.20;;;;;;5116965;28;20211;-65
2021/12/19 09:19:16;;;;;;;3.25;1.30;;;16.60;28.10;;;;;;5117042;28;20207;-64
2021/12/19 09:21:45;;;;;;;8.52;2.03;;;16.60;28.20;;;;;;5076830;28;20674;-64
2021/12/19 09:24:12;;;;;;;7.85;7.15;;;16.60;28.30;;;;;;5076855;28;20223;-65
2021/12/19 09:26:39;;;;;;;6.40;5.80;;;16.60;28.20;;;;;;5076661;28;20227;-65
2021/12/19 09:29:06;;;;;;;5.13;4.53;;;16.60;28.90;;;;;;5076971;28;20235;-64
2021/12/19 09:31:34;;;;;;;5.43;4.32;;;16.60;28.40;;;;;;5115524;28;20207;-65
2021/12/19 09:34:01;;;;;;;4.60;4.20;;;16.60;28.30;;;;;;5117325;28;20219;-65
2021/12/19 09:36:28;;;;;;;7.32;4.43;;;16.60;28.40;;;;;;5116498;28;20264;-65
2021/12/19 09:38:57;;;;;;;4.53;4.13;;;16.60;28.40;;;;;;5118116;27;20230;-65
2021/12/19 09:41:29;;;;;;;4.40;4.00;;;16.60;28.40;;;;;;5120136;27;20222;-64
2021/12/19 09:43:58;;;;;;;4.07;3.78;;;16.60;28.40;;;;;;5117102;28;20306;-65
2021/12/19 09:46:31;;;;;;;3.90;3.60;;;16.60;28.40;;;;;;5117048;28;20199;-64
2021/12/19 09:48:59;;;;;;;4.35;3.60;;;16.60;28.40;;;;;;5116837;28;20282;-64
2021/12/19 09:51:26;;;;;;;16.10;13.60;;;16.60;28.40;;;;;;5116401;28;20207;-64
2021/12/19 09:53:53;;;;;;;43.70;33.80;;;16.60;28.40;;;;;;5116338;28;20231;-65
2021/12/19 09:56:22;;;;;;;33.95;27.30;;;16.60;28.40;;;;;;5116837;28;20231;-65
2021/12/19 09:58:50;;;;;;;28.63;22.95;;;16.60;28.40;;;;;;5116206;28;20222;-65
2021/12/19 10:01:18;;;;;;;28.23;21.63;;;16.60;28.50;;;;;;5115554;28;20267;-65
2021/12/19 10:03:45;;;;;;;24.27;19.73;;;16.60;28.50;;;;;;5116481;28;20203;-65
2021/12/19 10:06:18;;;;;;;22.40;18.30;;;16.60;28.50;;;;;;5116576;28;20210;-65
2021/12/19 10:08:48;;;;;;;20.08;17.23;;;16.60;28.60;;;;;;5116282;28;20203;-65
2021/12/19 10:11:42;;;;;;;20.90;16.67;;;16.70;28.60;;;;;;5115584;28;20207;-65
2021/12/19 10:14:24;;;;;;;19.63;15.32;;;16.70;28.70;;;;;;5116690;28;20877;-65
2021/12/19 10:16:52;;;;;;;17.67;14.98;;;16.70;28.70;;;;;;5116049;28;20214;-64
2021/12/19 10:19:22;;;;;;;17.88;13.77;;;16.70;28.70;;;;;;5116008;28;20202;-64
2021/12/19 10:21:49;;;;;;;15.75;13.45;;;16.70;29.40;;;;;;5114689;28;20218;-64
2021/12/19 10:24:35;;;;;;;14.93;12.52;;;16.70;28.80;;;;;;5116389;28;20203;-64
2021/12/19 10:27:04;;;;;;;15.18;12.05;;;16.70;28.80;;;;;;5116077;28;20239;-64
2021/12/19 10:29:46;;;;;;;14.75;12.27;;;16.70;28.70;;;;;;5115310;28;20210;-64
2021/12/19 10:32:14;;;;;;;14.80;11.70;;;16.70;28.80;;;;;;5113823;28;20202;-64
2021/12/19 10:34:41;;;;;;;14.35;10.95;;;16.70;28.80;;;;;;5115348;28;20227;-65
2021/12/19 10:37:08;;;;;;;13.38;10.60;;;16.70;28.70;;;;;;5115893;28;20224;-64
2021/12/19 10:39:40;;;;;;;12.20;9.70;;;16.70;28.70;;;;;;5114844;28;20199;-65
2021/12/19 10:42:11;;;;;;;11.48;9.80;;;16.70;28.70;;;;;;5110743;27;20635;-65
2021/12/19 10:47:25;;;;;;;11.52;9.02;;;16.70;28.70;;;;;;5115192;28;20515;-65
2021/12/19 10:49:52;;;;;;;11.55;8.95;;;16.70;28.70;;;;;;5113445;28;20312;-65
2021/12/19 10:52:36;;;;;;;10.32;8.98;;;16.70;28.70;;;;;;5114131;28;20203;-65
2021/12/19 10:55:06;;;;;;;9.90;7.65;;;16.70;28.60;;;;;;5111795;28;20226;-64
2021/12/19 10:57:37;;;;;;;9.77;8.00;;;16.70;28.60;;;;;;5113698;28;20207;-65
2021/12/19 11:00:09;;;;;;;9.95;7.68;;;16.70;28.60;;;;;;5113445;28;20210;-64
2021/12/19 11:02:38;;;;;;;9.50;7.03;;;16.70;28.60;;;;;;5113917;28;20195;-64
2021/12/19 11:05:06;;;;;;;8.18;7.20;;;16.70;28.50;;;;;;5113324;28;20203;-65
2021/12/19 11:07:33;;;;;;;9.10;7.40;;;16.70;28.60;;;;;;5113212;28;20561;-64
2021/12/19 11:10:01;;;;;;;8.48;6.78;;;16.70;29.10;;;;;;5112295;28;20195;-65
2021/12/19 11:12:28;;;;;;;8.85;6.75;;;16.70;28.50;;;;;;5112816;28;20217;-64
2021/12/19 11:14:57;;;;;;;8.27;6.65;;;16.70;28.50;;;;;;5113405;28;20223;-64
2021/12/19 11:17:26;;;;;;;7.07;6.30;;;16.70;28.50;;;;;;5113190;28;20199;-65
2021/12/19 11:19:55;;;;;;;8.02;6.25;;;16.70;28.50;;;;;;5113418;28;20454;-65
2021/12/19 11:22:25;;;;;;;7.70;6.28;;;16.70;28.50;;;;;;5113067;28;20206;-64
2021/12/19 11:24:52;;;;;;;7.20;6.18;;;16.70;28.40;;;;;;5113535;28;20203;-65
2021/12/19 11:27:20;;;;;;;6.28;5.68;;;16.70;28.40;;;;;;5113783;28;20203;-64
2021/12/19 11:29:49;;;;;;;6.10;5.38;;;16.70;28.40;;;;;;5112664;28;20590;-64
2021/12/19 11:32:19;;;;;;;7.57;5.63;;;16.70;28.40;;;;;;5113198;28;20206;-64
2021/12/19 11:35:05;;;;;;;6.00;5.20;;;16.70;28.40;;;;;;5112721;28;20237;-65
2021/12/19 11:37:35;;;;;;;7.47;5.68;;;16.70;28.40;;;;;;5113275;28;20207;-64
2021/12/19 11:40:04;;;;;;;5.63;5.03;;;16.60;28.30;;;;;;5113389;28;20471;-64
2021/12/19 11:42:33;;;;;;;5.93;5.32;;;16.60;28.30;;;;;;5114079;28;20203;-64
2021/12/19 11:45:18;;;;;;;6.13;4.95;;;16.60;28.30;;;;;;5113374;28;20203;-65
2021/12/19 11:47:51;;;;;;;6.50;4.95;;;16.60;28.30;;;;;;5112110;28;20206;-64
2021/12/19 11:50:23;;;;;;;5.35;4.85;;;16.60;28.40;;;;;;5093840;28;20671;-64
2021/12/19 11:52:52;;;;;;;5.22;4.47;;;16.60;28.40;;;;;;5081407;28;20528;-65
2021/12/19 11:55:36;;;;;;;5.32;4.20;;;16.60;28.30;;;;;;5091515;28;20265;-64
2021/12/19 11:58:22;;;;;;;5.78;4.68;;;16.60;28.40;;;;;;5106500;28;20207;-64
2021/12/19 12:01:07;;;;;;;4.90;4.40;;;16.60;28.40;;;;;;5112516;28;20306;-64
2021/12/19 12:03:52;;;;;;;4.88;4.00;;;16.60;28.30;;;;;;5112831;28;20203;-64
2021/12/19 12:06:42;;;;;;;5.13;4.28;;;16.60;28.40;;;;;;5111948;28;20545;-64
2021/12/19 12:09:21;;;;;;;4.53;3.83;;;16.50;28.30;;;;;;5072183;28;20215;-64
2021/12/19 12:12:14;;;;;;;5.13;3.90;;;16.50;28.30;;;;;;5071804;28;20208;-64
2021/12/19 12:14:51;;;;;;;5.68;3.95;;;16.50;28.30;;;;;;5070846;28;20445;-64
2021/12/19 12:17:24;;;;;;;3.92;3.53;;;16.50;28.30;;;;;;5072327;28;20306;-64
2021/12/19 12:19:56;;;;;;;4.70;3.85;;;16.50;28.30;;;;;;5094067;28;20372;-64
2021/12/19 12:22:35;;;;;;;3.97;3.58;;;16.50;28.30;;;;;;5114988;28;20207;-65
2021/12/19 12:25:18;;;;;;;7.57;6.28;;;16.50;28.20;;;;;;5116214;28;20203;-65
2021/12/19 12:27:50;;;;;;;10.82;6.50;;;16.50;28.20;;;;;;5116824;28;20574;-64
2021/12/19 12:30:20;;;;;;;7.20;5.72;;;16.50;28.30;;;;;;5117278;28;20206;-64
2021/12/19 12:32:47;;;;;;;6.65;5.35;;;16.50;28.30;;;;;;5116632;28;20221;-64
2021/12/19 12:35:17;;;;;;;7.63;4.78;;;16.50;28.30;;;;;;5117537;28;20250;-64
2021/12/19 12:37:45;;;;;;;6.25;4.95;;;16.50;28.30;;;;;;5117968;28;20700;-64
2021/12/19 12:40:23;;;;;;;5.75;4.60;;;16.50;28.40;;;;;;5117761;28;20211;-65
2021/12/19 12:43:09;;;;;;;5.70;4.55;;;16.50;28.40;;;;;;5118220;28;20214;-64
2021/12/19 12:46:07;;;;;;;5.35;4.38;;;16.50;28.40;;;;;;5117511;28;20294;-64
2021/12/19 12:48:54;;;;;;;5.50;4.20;;;16.50;28.50;;;;;;5082330;28;20203;-64
2021/12/19 12:51:29;;;;;;;6.03;4.13;;;16.50;28.40;;;;;;5117961;28;20499;-64
2021/12/19 12:53:58;;;;;;;6.80;4.32;;;16.50;28.50;;;;;;5117404;28;20386;-64
2021/12/19 12:56:31;;;;;;;4.93;3.88;;;16.50;28.50;;;;;;5116272;28;20230;-64
2021/12/19 12:58:58;;;;;;;5.82;3.90;;;16.50;28.50;;;;;;5116886;28;20541;-64
2021/12/19 13:01:29;;;;;;;5.07;3.70;;;16.50;28.50;;;;;;5117344;28;20206;-64
2021/12/19 13:04:05;;;;;;;5.30;3.42;;;16.50;28.50;;;;;;5116868;28;20204;-65
2021/12/19 13:06:46;;;;;;;4.38;3.42;;;16.50;28.50;;;;;;5117139;28;20203;-65
2021/12/19 13:09:17;;;;;;;4.10;3.50;;;16.60;28.50;;;;;;5110510;27;20485;-65
2021/12/19 13:11:45;;;;;;;4.15;2.85;;;16.60;28.60;;;;;;5123961;27;20202;-64
2021/12/19 13:14:15;;;;;;;4.63;3.50;;;16.60;28.60;;;;;;5115400;28;20591;-65
2021/12/19 13:16:48;;;;;;;3.83;2.95;;;16.60;28.60;;;;;;5115034;28;20219;-64
2021/12/19 13:19:41;;;;;;;4.35;3.15;;;16.60;28.60;;;;;;5114892;28;20203;-64
2021/12/19 13:22:15;;;;;;;4.10;2.92;;;16.60;28.60;;;;;;5115126;28;20218;-64
2021/12/19 13:24:43;;;;;;;3.97;2.92;;;16.60;28.50;;;;;;5114906;28;20207;-65
2021/12/19 13:27:13;;;;;;;2.90;2.50;;;16.60;28.50;;;;;;5114700;28;20643;-65
2021/12/19 13:29:42;;;;;;;3.20;2.90;;;16.60;28.50;;;;;;5114767;28;20213;-64
2021/12/19 13:32:26;;;;;;;3.88;3.03;;;16.60;28.50;;;;;;5114448;28;20560;-65
2021/12/19 13:34:53;;;;;;;3.13;2.83;;;16.60;28.50;;;;;;5114370;28;20523;-64
2021/12/19 13:37:24;;;;;;;3.33;2.85;;;16.60;28.50;;;;;;5113815;28;20503;-65
2021/12/19 13:40:16;;;;;;;3.17;2.55;;;16.60;28.60;;;;;;5114065;28;20210;-64
2021/12/19 13:42:54;;;;;;;2.78;2.38;;;16.60;28.50;;;;;;5099097;28;20380;-64
2021/12/19 13:45:56;;;;;;;3.35;2.47;;;16.60;28.50;;;;;;5114093;28;20633;-64
2021/12/19 13:48:29;;;;;;;2.65;2.45;;;16.60;28.50;;;;;;5050391;28;20221;-64
2021/12/19 13:51:01;;;;;;;2.50;2.30;;;16.60;28.50;;;;;;5051479;28;20220;-64
2021/12/19 13:53:32;;;;;;;3.30;2.40;;;16.60;28.40;;;;;;5083500;28;20207;-64